createdAt,value
2023-01-07T00:00:03.115Z,89.5
2023-01-07T00:03:03.289Z,88.7
2023-01-07T00:06:03.056Z,88.7
2023-01-07T00:09:02.976Z,88.7
2023-01-07T00:12:02.996Z,88.7
2023-01-07T00:15:03.079Z,88.7
2023-01-07T00:18:03.036Z,88.7
2023-01-07T00:21:03.037Z,88.7
2023-01-07T00:24:03.099Z,88.7
2023-01-07T00:27:03.120Z,88.7
2023-01-07T00:30:03.073Z,88.7
2023-01-07T00:33:03.012Z,88.7
2023-01-07T00:36:03.018Z,88.3
2023-01-07T00:39:03.078Z,88.3
2023-01-07T00:42:03.017Z,88.3
2023-01-07T00:45:03.042Z,88.3
2023-01-07T00:48:02.984Z,88.3
2023-01-07T00:51:03.038Z,90.3
2023-01-07T00:54:03.042Z,90.3
2023-01-07T00:57:03.080Z,90.3
2023-01-07T01:00:03.111Z,90.3
2023-01-07T01:03:03.081Z,90.3
2023-01-07T01:06:03.358Z,91.7
2023-01-07T01:09:03.128Z,91.7
2023-01-07T01:12:03.057Z,91.7
2023-01-07T01:15:03.073Z,91.7
2023-01-07T01:18:03.005Z,91.7
2023-01-07T01:21:03.058Z,91.7
2023-01-07T01:24:03.039Z,91.7
2023-01-07T01:27:03.123Z,92
2023-01-07T01:30:03.133Z,92
2023-01-07T01:33:03.067Z,92
2023-01-07T01:36:03.162Z,91.8
2023-01-07T01:39:03.055Z,91.8
2023-01-07T01:42:03.191Z,91.8
2023-01-07T01:45:03.076Z,91.8
2023-01-07T01:48:03.024Z,91.8
2023-01-07T01:51:03.059Z,91.8
2023-01-07T01:54:03.043Z,91.8
2023-01-07T01:57:02.994Z,91.8
2023-01-07T02:00:03.189Z,91.8
2023-01-07T02:03:03.130Z,91.8
2023-01-07T02:06:03.067Z,91.8
2023-01-07T02:09:03.178Z,91.8
2023-01-07T02:12:03.110Z,91.1
2023-01-07T02:15:03.140Z,91.1
2023-01-07T02:18:03.082Z,91.1
2023-01-07T02:21:03.007Z,91.1
2023-01-07T02:24:03.032Z,91.1
2023-01-07T02:27:03.075Z,91.1
2023-01-07T02:30:03.078Z,91.1
2023-01-07T02:33:03.056Z,89.9
2023-01-07T02:36:03.289Z,89.9
2023-01-07T02:39:03.021Z,89.9
2023-01-07T02:42:03.638Z,89.9
2023-01-07T02:45:03.103Z,89.9
2023-01-07T02:48:03.017Z,89.9
2023-01-07T02:51:03.005Z,89.9
2023-01-07T02:54:03.007Z,89.9
2023-01-07T02:57:03.018Z,89.9
2023-01-07T03:00:03.059Z,89.9
2023-01-07T03:03:03.081Z,89.9
2023-01-07T03:06:02.989Z,89.9
2023-01-07T03:09:03.025Z,89.9
2023-01-07T03:12:03.043Z,89.9
2023-01-07T03:15:03.169Z,89.6
2023-01-07T03:18:03.125Z,89.6
2023-01-07T03:21:03.151Z,89.6
2023-01-07T03:24:03.083Z,89.6
2023-01-07T03:27:03.053Z,89.6
2023-01-07T03:30:03.082Z,89.9
2023-01-07T03:33:03.071Z,89.9
2023-01-07T03:36:03.015Z,89.9
2023-01-07T03:39:03.018Z,89.9
2023-01-07T03:42:03.073Z,89.9
2023-01-07T03:45:03.269Z,89.9
2023-01-07T03:48:03.069Z,89.9
2023-01-07T03:51:03.036Z,89.9
2023-01-07T03:54:02.996Z,89.9
2023-01-07T03:57:03.092Z,89.9
2023-01-07T04:00:03.029Z,90.6
2023-01-07T04:03:03.016Z,90.6
2023-01-07T04:06:03.022Z,90.6
2023-01-07T04:09:02.968Z,90.6
2023-01-07T04:12:03.076Z,90.6
2023-01-07T04:15:03.013Z,90.6
2023-01-07T04:18:03.070Z,90.4
2023-01-07T04:21:03.116Z,90.4
2023-01-07T04:24:02.987Z,90.4
2023-01-07T04:27:03.145Z,90.5
2023-01-07T04:30:03.102Z,90.5
2023-01-07T04:33:03.046Z,90.5
2023-01-07T04:36:02.992Z,90.5
2023-01-07T04:39:03.048Z,90.5
2023-01-07T04:42:02.993Z,90.5
2023-01-07T04:45:03.061Z,90.5
2023-01-07T04:48:03.061Z,90.5
2023-01-07T04:51:03.028Z,90.5
2023-01-07T04:54:03.005Z,90.5
2023-01-07T04:57:03.021Z,90.5
2023-01-07T05:00:03.089Z,90.4
2023-01-07T05:03:03.029Z,90.4
2023-01-07T05:06:03.077Z,90.4
2023-01-07T05:09:03.093Z,90.4
2023-01-07T05:12:03.048Z,90.4
2023-01-07T05:15:03.171Z,90.4
2023-01-07T05:18:03.093Z,90.4
2023-01-07T05:21:03.104Z,90.4
2023-01-07T05:24:03.032Z,90.4
2023-01-07T05:27:03.129Z,90.3
2023-01-07T05:30:03.259Z,90.3
2023-01-07T05:33:03.063Z,90.3
2023-01-07T05:36:03.066Z,90.3
2023-01-07T05:39:03.053Z,90.3
2023-01-07T05:42:02.981Z,90.3
2023-01-07T05:45:03.082Z,90.3
2023-01-07T05:48:03.006Z,90.3
2023-01-07T05:51:03.024Z,90.3
2023-01-07T05:54:03.020Z,90.3
2023-01-07T05:57:03.068Z,90.3
2023-01-07T06:00:03.240Z,90.3
2023-01-07T06:03:03.052Z,90.3
2023-01-07T06:06:03.142Z,90.3
2023-01-07T06:09:03.138Z,90.3
2023-01-07T06:12:03.069Z,90.3
2023-01-07T06:15:03.176Z,90.3
2023-01-07T06:18:03.055Z,90.3
2023-01-07T06:21:02.989Z,89.3
2023-01-07T06:24:03.099Z,89.3
2023-01-07T06:27:03.026Z,89.3
2023-01-07T06:30:03.090Z,89.3
2023-01-07T06:33:03.053Z,89.3
2023-01-07T06:36:03.017Z,89.3
2023-01-07T06:39:03.007Z,89.3
2023-01-07T06:42:03.096Z,89.3
2023-01-07T06:45:03.064Z,89.3
2023-01-07T06:48:03.009Z,89.3
2023-01-07T06:51:03.085Z,89.3
2023-01-07T06:54:03.028Z,89.3
2023-01-07T06:57:03.027Z,89.3
2023-01-07T07:00:03.049Z,89.3
2023-01-07T07:03:03.197Z,89.3
2023-01-07T07:06:03.027Z,89.3
2023-01-07T07:09:03.039Z,89.3
2023-01-07T07:12:03.046Z,89.3
2023-01-07T07:15:03.100Z,89.3
2023-01-07T07:18:03.028Z,88.7
2023-01-07T07:21:03.012Z,88.7
2023-01-07T07:24:03.043Z,88.7
2023-01-07T07:27:03.100Z,88.7
2023-01-07T07:30:03.100Z,88.7
2023-01-07T07:33:03.034Z,88.7
2023-01-07T07:36:02.996Z,88.7
2023-01-07T07:39:03.162Z,88.7
2023-01-07T07:42:03.155Z,88.7
2023-01-07T07:45:03.182Z,88.7
2023-01-07T07:48:03.113Z,88.7
2023-01-07T07:51:03.094Z,88.7
2023-01-07T07:54:03.007Z,88.7
2023-01-07T07:57:03.064Z,88.7
2023-01-07T08:00:03.090Z,88.7
2023-01-07T08:03:03.390Z,88.7
2023-01-07T08:06:03.111Z,88.7
2023-01-07T08:09:03.062Z,88.7
2023-01-07T08:12:03.066Z,89
2023-01-07T08:15:03.076Z,89
2023-01-07T08:18:03.032Z,89
2023-01-07T08:21:03.118Z,89
2023-01-07T08:24:03.054Z,89
2023-01-07T08:27:03.116Z,89
2023-01-07T08:30:03.209Z,89
2023-01-07T08:33:03.053Z,89
2023-01-07T08:36:07.218Z,89
2023-01-07T08:39:03.088Z,89
2023-01-07T08:42:03.052Z,89
2023-01-07T08:45:03.119Z,89
2023-01-07T08:48:03.147Z,89
2023-01-07T08:51:03.074Z,89
2023-01-07T08:54:03.052Z,89
2023-01-07T08:57:03.042Z,89
2023-01-07T09:00:03.134Z,89
2023-01-07T09:03:03.241Z,88.2
2023-01-07T09:06:03.097Z,88.2
2023-01-07T09:09:03.002Z,88.2
2023-01-07T09:12:03.052Z,88.2
2023-01-07T09:15:03.128Z,88.2
2023-01-07T09:18:03.132Z,88.2
2023-01-07T09:21:03.049Z,88.2
2023-01-07T09:24:03.057Z,88.2
2023-01-07T09:27:03.042Z,87.1
2023-01-07T09:30:03.153Z,87.1
2023-01-07T09:33:03.067Z,87.1
2023-01-07T09:36:03.064Z,87.1
2023-01-07T09:39:02.994Z,87.1
2023-01-07T09:42:02.987Z,87.1
2023-01-07T09:45:03.051Z,87.1
2023-01-07T09:48:03.067Z,87.1
2023-01-07T09:51:03.058Z,87.1
2023-01-07T09:54:03.033Z,87.1
2023-01-07T09:57:03.102Z,86.1
2023-01-07T10:00:03.175Z,86.2
2023-01-07T10:03:03.202Z,86.2
2023-01-07T10:06:03.076Z,86.2
2023-01-07T10:09:03.201Z,86.2
2023-01-07T10:12:03.184Z,86.2
2023-01-07T10:15:03.257Z,86.2
2023-01-07T10:18:03.080Z,84.6
2023-01-07T10:21:03.076Z,84.6
2023-01-07T10:24:03.219Z,84.6
2023-01-07T10:27:03.051Z,84.6
2023-01-07T10:30:03.165Z,84.6
2023-01-07T10:33:03.019Z,84.6
2023-01-07T10:36:03.066Z,84.6
2023-01-07T10:39:03.006Z,83.6
2023-01-07T10:42:03.052Z,83.6
2023-01-07T10:45:02.996Z,83.6
2023-01-07T10:48:03.074Z,83.6
2023-01-07T10:51:03.093Z,83.6
2023-01-07T10:54:03.025Z,83.6
2023-01-07T10:57:03.087Z,83.7
2023-01-07T11:00:03.120Z,83.4
2023-01-07T11:03:03.385Z,83.4
2023-01-07T11:06:03.083Z,83.4
2023-01-07T11:09:03.019Z,83.4
2023-01-07T11:12:03.079Z,83.4
2023-01-07T11:15:03.057Z,83.4
2023-01-07T11:18:03.112Z,83.4
2023-01-07T11:21:03.084Z,83.4
2023-01-07T11:24:03.041Z,83.4
2023-01-07T11:27:03.060Z,82.3
2023-01-07T11:30:03.181Z,82.3
2023-01-07T11:33:03.087Z,82.3
2023-01-07T11:36:03.069Z,82.3
2023-01-07T11:39:03.059Z,82.3
2023-01-07T11:42:03.092Z,82.3
2023-01-07T11:45:03.123Z,82.3
2023-01-07T11:48:03.161Z,82.3
2023-01-07T11:51:03.004Z,80.2
2023-01-07T11:54:03.140Z,79.8
2023-01-07T11:57:03.074Z,79.8
2023-01-07T12:00:03.110Z,79.8
2023-01-07T12:03:03.111Z,79.8
2023-01-07T12:06:03.125Z,79.8
2023-01-07T12:09:03.865Z,79.8
2023-01-07T12:12:03.147Z,79
2023-01-07T12:15:03.117Z,79
2023-01-07T12:18:03.010Z,79
2023-01-07T12:21:03.053Z,79
2023-01-07T12:24:03.068Z,78
2023-01-07T12:27:03.113Z,78
2023-01-07T12:30:03.201Z,78
2023-01-07T12:33:03.066Z,78
2023-01-07T12:36:03.107Z,78
2023-01-07T12:39:03.205Z,78
2023-01-07T12:42:03.106Z,78
2023-01-07T12:45:03.092Z,78.1
2023-01-07T12:48:03.204Z,78.1
2023-01-07T12:51:03.042Z,78.1
2023-01-07T12:54:03.050Z,76.1
2023-01-07T12:57:03.046Z,76.1
2023-01-07T13:00:03.228Z,76.1
2023-01-07T13:03:03.084Z,76.1
2023-01-07T13:06:03.142Z,76.1
2023-01-07T13:09:03.077Z,76.1
2023-01-07T13:12:03.069Z,76.1
2023-01-07T13:15:03.073Z,76.1
2023-01-07T13:18:03.063Z,76.1
2023-01-07T13:21:03.056Z,76.1
2023-01-07T13:24:03.056Z,76.1
2023-01-07T13:27:03.077Z,76.1
2023-01-07T13:30:03.074Z,76.1
2023-01-07T13:33:03.074Z,76.1
2023-01-07T13:36:03.024Z,76.1
2023-01-07T13:39:03.029Z,76.1
2023-01-07T13:42:03.244Z,76.1
2023-01-07T13:45:03.058Z,76.1
2023-01-07T13:48:03.064Z,77.4
2023-01-07T13:51:03.079Z,77.4
2023-01-07T13:54:03.190Z,77.4
2023-01-07T13:57:03.084Z,77.4
2023-01-07T14:00:03.128Z,76.5
2023-01-07T14:03:03.478Z,76.5
2023-01-07T14:06:03.052Z,76.5
2023-01-07T14:09:03.053Z,76.5
2023-01-07T14:12:03.009Z,76.5
2023-01-07T14:15:03.075Z,76.5
2023-01-07T14:18:03.178Z,76.5
2023-01-07T14:21:03.112Z,76.5
2023-01-07T14:24:03.079Z,76.5
2023-01-07T14:27:03.014Z,76.5
2023-01-07T14:30:19.271Z,76.5
2023-01-07T14:33:03.119Z,78.2
2023-01-07T14:36:03.191Z,78.2
2023-01-07T14:39:03.145Z,78.2
2023-01-07T14:42:03.100Z,78.2
2023-01-07T14:45:03.059Z,77.8
2023-01-07T14:48:03.121Z,77.8
2023-01-07T14:51:03.084Z,77.8
2023-01-07T14:54:03.146Z,78
2023-01-07T14:57:03.040Z,78
2023-01-07T15:00:03.121Z,78
2023-01-07T15:03:03.220Z,78
2023-01-07T15:06:03.057Z,78
2023-01-07T15:09:03.067Z,78
2023-01-07T15:12:03.203Z,78
2023-01-07T15:15:03.128Z,79.2
2023-01-07T15:18:03.092Z,79.2
2023-01-07T15:21:03.074Z,79.2
2023-01-07T15:24:03.083Z,79.2
2023-01-07T15:27:03.057Z,79.2
2023-01-07T15:30:03.101Z,79.2
2023-01-07T15:33:03.057Z,79.2
2023-01-07T15:36:03.046Z,79.2
2023-01-07T15:39:03.072Z,79.2
2023-01-07T15:42:03.044Z,80
2023-01-07T15:45:03.042Z,80
2023-01-07T15:48:03.002Z,80
2023-01-07T15:51:03.185Z,80
2023-01-07T15:54:04.103Z,79.9
2023-01-07T15:57:03.471Z,79.9
2023-01-07T16:00:03.362Z,79.9
2023-01-07T16:03:03.457Z,79.9
2023-01-07T16:06:04.372Z,79.9
2023-01-07T16:09:04.242Z,79.9
2023-01-07T16:12:03.557Z,79.9
2023-01-07T16:15:07.407Z,79.9
2023-01-07T16:18:03.095Z,79.9
2023-01-07T16:21:03.034Z,79.9
2023-01-07T16:24:03.083Z,79.9
2023-01-07T16:27:04.885Z,79.9
2023-01-07T16:30:03.329Z,79.9
2023-01-07T16:33:04.007Z,79.9
2023-01-07T16:36:03.074Z,79.9
2023-01-07T16:39:03.381Z,80.1
2023-01-07T16:42:03.044Z,80.1
2023-01-07T16:45:02.980Z,80.1
2023-01-07T16:48:03.019Z,80.1
2023-01-07T16:51:03.017Z,80.1
2023-01-07T16:54:03.465Z,80.1
2023-01-07T16:57:03.437Z,80.1
2023-01-07T17:00:03.126Z,80.1
2023-01-07T17:03:03.776Z,80.1
2023-01-07T17:06:06.527Z,80.1
2023-01-07T17:09:03.263Z,80.3
2023-01-07T17:12:03.093Z,80.3
2023-01-07T17:15:03.105Z,80.3
2023-01-07T17:18:03.034Z,80.3
2023-01-07T17:21:03.308Z,80.3
2023-01-07T17:24:03.027Z,80.3
2023-01-07T17:27:03.040Z,80.3
2023-01-07T17:30:03.045Z,80.4
2023-01-07T17:33:03.011Z,80.4
2023-01-07T17:36:03.033Z,80.4
2023-01-07T17:39:03.089Z,80.4
2023-01-07T17:42:02.999Z,80.1
2023-01-07T17:45:03.044Z,80.1
2023-01-07T17:48:02.982Z,80.1
2023-01-07T17:51:03.045Z,80.1
2023-01-07T17:54:04.210Z,80.1
2023-01-07T17:57:02.965Z,80.1
2023-01-07T18:00:03.090Z,79.8
2023-01-07T18:03:03.667Z,79.8
2023-01-07T18:06:03.077Z,79.8
2023-01-07T18:09:03.185Z,79.8
2023-01-07T18:12:03.036Z,79.8
2023-01-07T18:15:03.066Z,79.8
2023-01-07T18:18:03.053Z,79.8
2023-01-07T18:21:03.036Z,79.8
2023-01-07T18:24:03.540Z,79.8
2023-01-07T18:27:03.056Z,79.8
2023-01-07T18:30:03.081Z,80.7
2023-01-07T18:33:03.043Z,80.8
2023-01-07T18:36:03.025Z,80.8
2023-01-07T18:39:03.096Z,80.8
2023-01-07T18:42:02.988Z,80.8
2023-01-07T18:45:03.071Z,80.8
2023-01-07T18:48:03.051Z,80.8
2023-01-07T18:51:03.024Z,80.8
2023-01-07T18:54:03.063Z,79
2023-01-07T18:57:02.996Z,79
2023-01-07T19:00:03.059Z,79
2023-01-07T19:03:03.029Z,79
2023-01-07T19:06:03.412Z,79
2023-01-07T19:09:03.360Z,79
2023-01-07T19:12:03.121Z,79
2023-01-07T19:15:03.095Z,79
2023-01-07T19:18:03.079Z,79
2023-01-07T19:21:03.013Z,79
2023-01-07T19:24:03.704Z,79
2023-01-07T19:27:03.031Z,79
2023-01-07T19:30:03.330Z,78.7
2023-01-07T19:33:03.211Z,78.7
2023-01-07T19:36:03.036Z,78.7
2023-01-07T19:39:03.088Z,78.7
2023-01-07T19:42:02.985Z,78.7
2023-01-07T19:45:03.063Z,78.7
2023-01-07T19:48:03.029Z,78.7
2023-01-07T19:51:05.315Z,78.7
2023-01-07T19:54:04.638Z,78.7
2023-01-07T19:57:03.046Z,79.2
2023-01-07T20:00:03.095Z,79.2
2023-01-07T20:03:03.220Z,79.2
2023-01-07T20:06:02.990Z,79.2
2023-01-07T20:09:03.006Z,79.2
2023-01-07T20:12:03.395Z,79.2
2023-01-07T20:15:03.487Z,79.2
2023-01-07T20:18:03.159Z,79.2
2023-01-07T20:21:03.057Z,80
2023-01-07T20:24:02.993Z,80.3
2023-01-07T20:27:03.027Z,80.3
2023-01-07T20:30:03.098Z,80.3
2023-01-07T20:33:03.150Z,80.3
2023-01-07T20:36:03.362Z,80.3
2023-01-07T20:39:03.034Z,79.5
2023-01-07T20:42:03.034Z,79.5
2023-01-07T20:45:03.048Z,79.5
2023-01-07T20:48:03.770Z,79.5
2023-01-07T20:51:03.086Z,79.5
2023-01-07T20:54:03.568Z,78.3
2023-01-07T20:57:03.058Z,78.3
2023-01-07T21:00:03.066Z,78.3
2023-01-07T21:03:03.365Z,78.3
2023-01-07T21:06:03.131Z,78.3
2023-01-07T21:09:03.201Z,78.3
2023-01-07T21:12:02.973Z,78.3
2023-01-07T21:15:03.173Z,78.3
2023-01-07T21:18:03.904Z,79.6
2023-01-07T21:21:03.044Z,79.6
2023-01-07T21:24:04.849Z,79.6
2023-01-07T21:27:02.979Z,79.6
2023-01-07T21:30:05.715Z,79.6
2023-01-07T21:33:03.424Z,79.6
2023-01-07T21:36:03.209Z,79.6
2023-01-07T21:39:03.075Z,79.6
2023-01-07T21:42:03.111Z,79.6
2023-01-07T21:45:03.152Z,79.6
2023-01-07T21:48:03.102Z,79.6
2023-01-07T21:51:03.061Z,79.6
2023-01-07T21:54:03.057Z,79.6
2023-01-07T21:57:03.051Z,79.6
2023-01-07T22:00:03.182Z,79.6
2023-01-07T22:03:03.059Z,79.6
2023-01-07T22:06:03.471Z,79.6
2023-01-07T22:09:04.303Z,79.6
2023-01-07T22:12:03.371Z,79.6
2023-01-07T22:15:03.045Z,78.1
2023-01-07T22:18:03.035Z,77.5
2023-01-07T22:21:03.038Z,77.4
2023-01-07T22:24:03.070Z,77.4
2023-01-07T22:27:03.056Z,77.4
2023-01-07T22:30:03.108Z,77.4
2023-01-07T22:33:03.038Z,77.4
2023-01-07T22:36:03.294Z,77.4
2023-01-07T22:39:03.125Z,77.4
2023-01-07T22:42:03.015Z,77.4
2023-01-07T22:45:03.055Z,77.4
2023-01-07T22:48:03.081Z,77.4
2023-01-07T22:51:03.051Z,77.8
2023-01-07T22:54:03.040Z,77.8
2023-01-07T22:57:02.966Z,77.8
2023-01-07T23:00:03.874Z,77.8
2023-01-07T23:03:03.306Z,77.6
2023-01-07T23:06:03.002Z,77.6
2023-01-07T23:09:02.986Z,77.6
2023-01-07T23:12:03.138Z,77.8
2023-01-07T23:15:03.017Z,77.8
2023-01-07T23:18:03.037Z,77.8
2023-01-07T23:21:03.003Z,78.1
2023-01-07T23:24:03.066Z,78.1
2023-01-07T23:27:03.042Z,78.1
2023-01-07T23:30:03.074Z,78.1
2023-01-07T23:33:03.017Z,78.1
2023-01-07T23:36:03.031Z,78.2
2023-01-07T23:39:03.053Z,78.2
2023-01-07T23:42:03.058Z,78.2
2023-01-07T23:45:03.037Z,78.2
2023-01-07T23:48:02.991Z,78.2
2023-01-07T23:51:03.011Z,78.2
2023-01-07T23:54:03.026Z,78.2
2023-01-07T23:57:02.990Z,78.2
